createdAt,value
2022-10-04T00:00:29.561Z,1.77
2022-10-04T00:01:08.836Z,3.10
2022-10-04T00:01:47.586Z,2.90
2022-10-04T00:02:26.443Z,3.30
2022-10-04T00:03:05.416Z,3.00
2022-10-04T00:03:42.002Z,3.20
2022-10-04T00:04:20.455Z,3.30
2022-10-04T00:04:58.143Z,3.00
2022-10-04T00:05:31.207Z,3.70
2022-10-04T00:06:06.900Z,3.40
2022-10-04T00:06:45.844Z,3.70
2022-10-04T00:07:24.607Z,3.20
2022-10-04T00:07:59.374Z,3.33
2022-10-04T00:08:37.045Z,2.75
2022-10-04T00:09:15.364Z,3.53
2022-10-04T00:09:49.999Z,3.20
2022-10-04T00:10:25.099Z,3.53
2022-10-04T00:11:08.361Z,3.20
2022-10-04T00:11:44.412Z,2.85
2022-10-04T00:12:19.091Z,2.17
2022-10-04T00:12:55.836Z,2.10
2022-10-04T00:13:28.701Z,2.20
2022-10-04T00:14:05.139Z,2.10
2022-10-04T00:14:39.412Z,2.17
2022-10-04T00:15:22.974Z,1.80
2022-10-04T00:15:55.295Z,2.10
2022-10-04T00:16:32.129Z,2.10
2022-10-04T00:17:14.132Z,2.13
2022-10-04T00:18:00.158Z,2.08
2022-10-04T00:18:42.352Z,2.28
2022-10-04T00:19:42.435Z,1.97
2022-10-04T00:20:47.136Z,2.20
2022-10-04T00:21:19.813Z,1.80
2022-10-04T00:22:22.613Z,1.80
2022-10-04T00:23:25.198Z,1.40
2022-10-04T00:24:13.501Z,1.50
2022-10-04T00:25:02.214Z,1.50
2022-10-04T00:25:39.173Z,2.40
2022-10-04T00:26:16.357Z,2.45
2022-10-04T00:27:17.808Z,2.77
2022-10-04T00:28:20.303Z,2.78
2022-10-04T00:28:52.724Z,3.10
2022-10-04T00:29:31.370Z,2.90
2022-10-04T00:30:23.964Z,3.10
2022-10-04T00:31:20.615Z,2.97
2022-10-04T00:32:30.424Z,3.10
2022-10-04T00:33:05.238Z,2.93
2022-10-04T00:33:38.891Z,2.87
2022-10-04T00:34:47.657Z,2.58
2022-10-04T00:35:48.060Z,2.40
2022-10-04T00:36:51.798Z,2.30
2022-10-04T00:37:25.659Z,2.30
2022-10-04T00:37:58.911Z,2.17
2022-10-04T00:38:31.116Z,2.40
2022-10-04T00:39:21.628Z,2.30
2022-10-04T00:40:11.352Z,2.37
2022-10-04T00:40:49.862Z,2.17
2022-10-04T00:41:22.481Z,2.03
2022-10-04T00:42:00.042Z,2.53
2022-10-04T00:42:46.292Z,2.27
2022-10-04T00:43:20.325Z,2.03
2022-10-04T00:43:52.701Z,2.43
2022-10-04T00:44:36.565Z,2.05
2022-10-04T00:45:16.993Z,2.03
2022-10-04T00:45:55.251Z,1.80
2022-10-04T00:46:29.076Z,2.57
2022-10-04T00:47:03.089Z,2.10
2022-10-04T00:47:56.139Z,2.28
2022-10-04T00:48:51.998Z,2.00
2022-10-04T00:49:29.670Z,2.10
2022-10-04T00:50:07.796Z,1.98
2022-10-04T00:50:44.053Z,2.40
2022-10-04T00:51:25.779Z,2.60
2022-10-04T00:52:01.519Z,2.17
2022-10-04T00:52:35.887Z,1.95
2022-10-04T00:53:18.736Z,1.90
2022-10-04T00:54:02.015Z,1.92
2022-10-04T00:54:41.535Z,1.90
2022-10-04T00:55:22.352Z,1.80
2022-10-04T00:55:57.297Z,2.20
2022-10-04T00:56:37.448Z,1.73
2022-10-04T00:57:12.835Z,1.85
2022-10-04T00:57:48.449Z,1.60
2022-10-04T00:58:25.955Z,2.38
2022-10-04T00:59:29.581Z,1.90
2022-10-04T01:00:07.429Z,1.60
2022-10-04T01:00:40.830Z,2.00
2022-10-04T01:01:13.164Z,1.85
2022-10-04T01:01:48.486Z,2.00
2022-10-04T01:02:22.571Z,1.87
2022-10-04T01:03:02.004Z,1.92
2022-10-04T01:03:37.507Z,1.75
2022-10-04T01:04:21.953Z,1.53
2022-10-04T01:05:00.533Z,1.55
2022-10-04T01:05:34.867Z,1.63
2022-10-04T01:06:09.605Z,1.40
2022-10-04T01:06:46.382Z,1.52
2022-10-04T01:07:23.445Z,1.52
2022-10-04T01:08:00.676Z,1.40
2022-10-04T01:08:35.308Z,1.45
2022-10-04T01:09:08.991Z,1.50
2022-10-04T01:09:51.427Z,1.40
2022-10-04T01:10:27.583Z,1.40
2022-10-04T01:11:02.632Z,1.23
2022-10-04T01:11:37.301Z,1.60
2022-10-04T01:12:17.521Z,1.20
2022-10-04T01:12:52.609Z,1.65
2022-10-04T01:13:28.573Z,1.50
2022-10-04T01:14:07.732Z,1.52
2022-10-04T01:14:47.630Z,1.30
2022-10-04T01:15:26.888Z,1.73
2022-10-04T01:16:04.568Z,1.33
2022-10-04T01:16:38.286Z,1.40
2022-10-04T01:17:10.520Z,1.50
2022-10-04T01:18:18.295Z,1.50
2022-10-04T01:18:50.644Z,1.30
2022-10-04T01:19:31.406Z,1.98
2022-10-04T01:20:33.080Z,1.43
2022-10-04T01:21:07.821Z,1.20
2022-10-04T01:21:40.808Z,1.50
2022-10-04T01:22:18.115Z,1.52
2022-10-04T01:22:52.912Z,1.20
2022-10-04T01:23:42.676Z,1.58
2022-10-04T01:24:20.664Z,1.17
2022-10-04T01:24:52.841Z,1.43
2022-10-04T01:25:43.255Z,1.73
2022-10-04T01:26:40.478Z,1.33
2022-10-04T01:27:34.381Z,1.30
2022-10-04T01:28:06.672Z,1.23
2022-10-04T01:28:41.592Z,1.30
2022-10-04T01:29:16.016Z,1.67
2022-10-04T01:29:48.269Z,1.30
2022-10-04T01:30:23.123Z,1.45
2022-10-04T01:30:55.494Z,1.17
2022-10-04T01:31:28.373Z,1.00
2022-10-04T01:32:04.089Z,1.27
2022-10-04T01:32:37.997Z,1.50
2022-10-04T01:33:12.257Z,1.30
2022-10-04T01:33:47.068Z,1.13
2022-10-04T01:34:20.791Z,1.40
2022-10-04T01:34:53.011Z,1.50
2022-10-04T01:35:28.989Z,1.37
2022-10-04T01:36:01.570Z,1.50
2022-10-04T01:36:34.406Z,1.57
2022-10-04T01:37:09.320Z,1.40
2022-10-04T01:37:41.625Z,1.27
2022-10-04T01:38:16.430Z,1.80
2022-10-04T01:38:51.809Z,1.53
2022-10-04T01:39:25.536Z,1.30
2022-10-04T01:39:57.775Z,1.67
2022-10-04T01:40:34.333Z,1.50
2022-10-04T01:41:07.680Z,1.40
2022-10-04T01:41:54.176Z,1.40
2022-10-04T01:42:32.574Z,1.30
2022-10-04T01:43:07.592Z,1.50
2022-10-04T01:43:43.134Z,1.53
2022-10-04T01:44:26.143Z,1.60
2022-10-04T01:45:02.412Z,1.40
2022-10-04T01:45:39.629Z,1.70
2022-10-04T01:46:16.821Z,1.50
2022-10-04T01:46:50.438Z,1.70
2022-10-04T01:47:27.564Z,1.65
2022-10-04T01:48:05.052Z,1.47
2022-10-04T01:48:38.249Z,1.50
2022-10-04T01:49:14.559Z,1.10
2022-10-04T01:49:50.321Z,1.40
2022-10-04T01:50:27.860Z,1.10
2022-10-04T01:51:04.609Z,1.30
2022-10-04T01:51:42.558Z,1.40
2022-10-04T01:52:18.411Z,1.70
2022-10-04T01:52:54.059Z,1.27
2022-10-04T01:53:33.176Z,1.20
2022-10-04T01:54:07.899Z,1.43
2022-10-04T01:54:43.212Z,1.40
2022-10-04T01:55:21.928Z,1.60
2022-10-04T01:55:56.068Z,1.33
2022-10-04T01:56:31.968Z,1.60
2022-10-04T01:57:08.031Z,1.40
2022-10-04T01:57:46.336Z,1.30
2022-10-04T01:58:21.167Z,1.33
2022-10-04T01:58:58.677Z,1.30
2022-10-04T01:59:34.198Z,1.40
2022-10-04T02:00:09.322Z,1.40
2022-10-04T02:00:48.405Z,1.50
2022-10-04T02:01:26.811Z,1.20
2022-10-04T02:02:04.272Z,1.30
2022-10-04T02:02:42.845Z,1.50
2022-10-04T02:03:18.011Z,1.40
2022-10-04T02:03:54.937Z,1.67
2022-10-04T02:04:31.583Z,1.20
2022-10-04T02:05:07.309Z,1.30
2022-10-04T02:05:42.276Z,1.20
2022-10-04T02:06:18.416Z,1.20
2022-10-04T02:06:53.711Z,1.00
2022-10-04T02:07:29.486Z,1.07
2022-10-04T02:08:06.692Z,1.30
2022-10-04T02:08:47.164Z,1.13
2022-10-04T02:09:22.938Z,1.40
2022-10-04T02:10:00.141Z,1.10
2022-10-04T02:10:39.739Z,1.03
2022-10-04T02:11:19.309Z,1.00
2022-10-04T02:11:55.868Z,1.20
2022-10-04T02:12:28.929Z,1.40
2022-10-04T02:13:01.483Z,1.00
2022-10-04T02:13:38.696Z,1.20
2022-10-04T02:14:15.891Z,1.23
2022-10-04T02:14:52.776Z,1.50
2022-10-04T02:15:29.227Z,1.47
2022-10-04T02:16:03.019Z,1.30
2022-10-04T02:16:37.347Z,1.90
2022-10-04T02:17:12.499Z,1.40
2022-10-04T02:17:47.460Z,1.50
2022-10-04T02:18:20.927Z,1.40
2022-10-04T02:18:53.958Z,1.57
2022-10-04T02:19:31.356Z,1.63
2022-10-04T02:20:04.689Z,1.50
2022-10-04T02:20:39.516Z,1.40
2022-10-04T02:21:15.351Z,1.40
2022-10-04T02:21:48.643Z,1.45
2022-10-04T02:22:21.116Z,1.53
2022-10-04T02:22:59.542Z,1.40
2022-10-04T02:23:32.515Z,1.40
2022-10-04T02:24:07.896Z,1.73
2022-10-04T02:24:42.892Z,1.60
2022-10-04T02:25:18.781Z,1.70
2022-10-04T02:25:51.192Z,1.47
2022-10-04T02:26:26.721Z,1.57
2022-10-04T02:26:59.205Z,1.27
2022-10-04T02:27:32.629Z,1.33
2022-10-04T02:28:07.865Z,1.55
2022-10-04T02:28:40.265Z,1.45
2022-10-04T02:29:12.464Z,1.50
2022-10-04T02:29:47.357Z,1.70
2022-10-04T02:30:19.670Z,1.50
2022-10-04T02:31:07.599Z,1.57
2022-10-04T02:31:55.217Z,1.50
2022-10-04T02:32:42.638Z,1.20
2022-10-04T02:33:14.892Z,1.30
2022-10-04T02:33:52.160Z,1.23
2022-10-04T02:34:24.382Z,1.15
2022-10-04T02:34:56.973Z,1.10
2022-10-04T02:35:35.922Z,1.10
2022-10-04T02:36:09.526Z,1.40
2022-10-04T02:36:42.064Z,1.00
2022-10-04T02:37:15.392Z,1.23
2022-10-04T02:37:53.044Z,1.13
2022-10-04T02:38:29.004Z,1.00
2022-10-04T02:39:03.825Z,1.20
2022-10-04T02:39:45.613Z,1.02
2022-10-04T02:40:21.798Z,1.00
2022-10-04T02:41:00.570Z,0.80
2022-10-04T02:41:37.581Z,0.70
2022-10-04T02:42:13.460Z,0.75
2022-10-04T02:42:50.437Z,0.60
2022-10-04T02:43:30.427Z,0.65
2022-10-04T02:44:05.037Z,0.50
2022-10-04T02:44:41.802Z,0.70
2022-10-04T02:45:21.419Z,0.60
2022-10-04T02:45:56.548Z,0.70
2022-10-04T02:46:34.137Z,0.60
2022-10-04T02:47:08.968Z,0.73
2022-10-04T02:47:44.940Z,0.60
2022-10-04T02:48:31.750Z,0.77
2022-10-04T02:49:06.689Z,0.60
2022-10-04T02:49:42.009Z,0.90
2022-10-04T02:50:29.703Z,0.70
2022-10-04T02:51:08.497Z,0.90
2022-10-04T02:51:43.306Z,0.80
2022-10-04T02:52:23.749Z,0.80
2022-10-04T02:52:58.727Z,0.93
2022-10-04T02:53:35.464Z,0.80
2022-10-04T02:54:16.768Z,0.70
2022-10-04T02:54:56.685Z,0.70
2022-10-04T02:55:33.408Z,0.60
2022-10-04T02:56:06.005Z,0.70
2022-10-04T02:56:38.459Z,0.80
2022-10-04T02:57:19.385Z,0.60
2022-10-04T02:57:52.604Z,0.87
2022-10-04T02:58:26.305Z,0.70
2022-10-04T02:59:04.104Z,0.87
2022-10-04T02:59:39.893Z,0.70
2022-10-04T03:00:18.641Z,0.70
2022-10-04T03:01:00.793Z,0.63
2022-10-04T03:01:49.098Z,0.60
2022-10-04T03:02:30.161Z,1.00
2022-10-04T03:03:23.884Z,0.67
2022-10-04T03:03:57.904Z,0.60
2022-10-04T03:04:35.475Z,0.60
2022-10-04T03:05:09.732Z,0.60
2022-10-04T03:05:42.387Z,0.70
2022-10-04T03:06:20.111Z,0.73
2022-10-04T03:06:52.612Z,0.50
2022-10-04T03:07:25.627Z,0.70
2022-10-04T03:08:01.888Z,0.60
2022-10-04T03:08:37.992Z,0.60
2022-10-04T03:09:10.180Z,0.70
2022-10-04T03:09:44.999Z,0.67
2022-10-04T03:10:19.929Z,0.70
2022-10-04T03:10:52.176Z,0.77
2022-10-04T03:11:31.100Z,0.70
2022-10-04T03:12:04.465Z,0.80
2022-10-04T03:12:37.587Z,0.90
2022-10-04T03:13:12.736Z,0.90
2022-10-04T03:13:47.339Z,0.90
2022-10-04T03:14:25.070Z,0.90
2022-10-04T03:14:57.283Z,0.80
2022-10-04T03:15:29.645Z,0.83
2022-10-04T03:16:04.811Z,0.90
2022-10-04T03:16:39.013Z,0.90
2022-10-04T03:17:11.883Z,0.97
2022-10-04T03:17:47.113Z,1.00
2022-10-04T03:18:19.955Z,1.10
2022-10-04T03:18:54.032Z,0.80
2022-10-04T03:19:29.689Z,0.77
2022-10-04T03:20:02.136Z,0.70
2022-10-04T03:20:37.876Z,1.10
2022-10-04T03:21:15.021Z,1.00
2022-10-04T03:21:50.324Z,1.10
2022-10-04T03:22:23.439Z,0.90
2022-10-04T03:22:58.737Z,0.80
2022-10-04T03:23:31.508Z,0.70
2022-10-04T03:24:04.810Z,1.10
2022-10-04T03:24:42.768Z,0.80
2022-10-04T03:25:21.329Z,1.00
2022-10-04T03:25:56.430Z,1.00
2022-10-04T03:26:33.667Z,0.90
2022-10-04T03:27:07.668Z,0.60
2022-10-04T03:27:40.048Z,0.90
2022-10-04T03:28:15.036Z,0.80
2022-10-04T03:28:47.408Z,0.80
2022-10-04T03:29:19.939Z,1.00
2022-10-04T03:29:59.049Z,0.90
2022-10-04T03:30:31.990Z,0.80
2022-10-04T03:31:04.546Z,0.93
2022-10-04T03:31:41.490Z,0.97
2022-10-04T03:32:19.037Z,0.90
2022-10-04T03:32:51.351Z,1.13
2022-10-04T03:33:25.496Z,1.03
2022-10-04T03:34:01.050Z,1.10
2022-10-04T03:34:35.352Z,1.00
2022-10-04T03:35:21.045Z,0.80
2022-10-04T03:35:55.232Z,0.87
2022-10-04T03:36:30.317Z,1.03
2022-10-04T03:37:03.620Z,0.90
2022-10-04T03:37:37.569Z,0.90
2022-10-04T03:38:14.377Z,0.93
2022-10-04T03:38:47.536Z,0.90
2022-10-04T03:39:28.365Z,1.00
2022-10-04T03:40:04.723Z,1.00
2022-10-04T03:40:42.283Z,0.70
2022-10-04T03:41:15.096Z,0.57
2022-10-04T03:41:50.028Z,0.80
2022-10-04T03:42:23.636Z,0.90
2022-10-04T03:42:56.259Z,0.73
2022-10-04T03:43:34.305Z,0.80
2022-10-04T03:44:07.800Z,0.80
2022-10-04T03:44:40.045Z,0.70
2022-10-04T03:45:18.294Z,1.13
2022-10-04T03:45:50.998Z,0.70
2022-10-04T03:46:24.573Z,0.77
2022-10-04T03:46:59.438Z,0.80
2022-10-04T03:47:35.312Z,0.80
2022-10-04T03:48:08.644Z,0.70
2022-10-04T03:48:44.361Z,0.63
2022-10-04T03:49:21.345Z,0.70
2022-10-04T03:49:54.995Z,0.97
2022-10-04T03:50:29.348Z,0.70
2022-10-04T03:51:06.276Z,0.83
2022-10-04T03:51:39.014Z,0.70
2022-10-04T03:52:15.464Z,0.70
2022-10-04T03:52:54.134Z,0.60
2022-10-04T03:53:32.080Z,0.67
2022-10-04T03:54:07.229Z,0.67
2022-10-04T03:54:39.539Z,0.70
2022-10-04T03:55:12.984Z,0.60
2022-10-04T03:55:47.810Z,0.70
2022-10-04T03:56:26.203Z,0.70
2022-10-04T03:56:59.067Z,0.70
2022-10-04T03:57:31.642Z,0.70
2022-10-04T03:58:06.730Z,0.73
2022-10-04T03:58:39.141Z,0.77
2022-10-04T03:59:14.820Z,0.70
2022-10-04T03:59:49.760Z,0.60
2022-10-04T04:00:22.037Z,0.60
2022-10-04T04:01:10.327Z,0.70
2022-10-04T04:01:49.311Z,0.73
2022-10-04T04:02:30.103Z,0.70
2022-10-04T04:03:05.497Z,0.50
2022-10-04T04:03:49.122Z,0.70
2022-10-04T04:04:24.951Z,0.60
2022-10-04T04:05:08.334Z,0.60
2022-10-04T04:05:44.803Z,0.70
2022-10-04T04:06:18.474Z,0.77
2022-10-04T04:07:03.254Z,0.60
2022-10-04T04:07:38.669Z,0.80
2022-10-04T04:08:14.701Z,0.70
2022-10-04T04:08:52.088Z,0.60
2022-10-04T04:09:26.669Z,0.50
2022-10-04T04:10:07.118Z,0.70
2022-10-04T04:10:42.941Z,0.67
2022-10-04T04:11:22.791Z,0.70
2022-10-04T04:11:59.513Z,0.60
2022-10-04T04:12:38.203Z,0.70
2022-10-04T04:13:17.729Z,0.60
2022-10-04T04:13:57.005Z,0.77
2022-10-04T04:14:31.930Z,0.70
2022-10-04T04:15:07.294Z,0.70
2022-10-04T04:15:45.555Z,0.70
2022-10-04T04:16:22.471Z,0.70
2022-10-04T04:16:55.983Z,0.80
2022-10-04T04:17:36.092Z,0.80
2022-10-04T04:18:18.129Z,0.63
2022-10-04T04:18:50.837Z,0.90
2022-10-04T04:19:24.896Z,0.70
2022-10-04T04:20:06.917Z,0.80
2022-10-04T04:20:41.223Z,0.60
2022-10-04T04:21:18.741Z,0.70
2022-10-04T04:21:54.902Z,0.60
2022-10-04T04:22:31.398Z,0.80
2022-10-04T04:23:11.903Z,0.80
2022-10-04T04:23:48.826Z,0.67
2022-10-04T04:24:24.978Z,0.60
2022-10-04T04:24:58.810Z,0.70
2022-10-04T04:25:36.181Z,0.60
2022-10-04T04:26:26.019Z,0.60
2022-10-04T04:27:00.244Z,0.70
2022-10-04T04:27:38.372Z,0.70
2022-10-04T04:28:21.724Z,0.80
2022-10-04T04:28:58.728Z,0.70
2022-10-04T04:29:35.125Z,0.70
2022-10-04T04:30:09.096Z,0.70
2022-10-04T04:30:47.636Z,0.80
2022-10-04T04:31:22.603Z,0.70
2022-10-04T04:31:58.608Z,0.70
2022-10-04T04:32:38.300Z,0.60
2022-10-04T04:33:21.135Z,0.60
2022-10-04T04:34:00.773Z,0.70
2022-10-04T04:34:35.266Z,0.77
2022-10-04T04:35:21.483Z,0.60
2022-10-04T04:35:58.451Z,0.70
2022-10-04T04:36:32.237Z,0.80
2022-10-04T04:37:08.141Z,0.60
2022-10-04T04:37:40.354Z,0.63
2022-10-04T04:38:19.991Z,0.70
2022-10-04T04:39:07.329Z,0.70
2022-10-04T04:39:45.000Z,0.70
2022-10-04T04:40:21.184Z,0.70
2022-10-04T04:40:55.748Z,0.60
2022-10-04T04:41:35.507Z,0.90
2022-10-04T04:42:14.365Z,0.70
2022-10-04T04:42:47.188Z,0.90
2022-10-04T04:43:22.657Z,0.90
2022-10-04T04:43:54.859Z,0.70
2022-10-04T04:44:27.335Z,0.63
2022-10-04T04:45:04.077Z,0.80
2022-10-04T04:45:37.114Z,0.90
2022-10-04T04:46:26.714Z,0.90
2022-10-04T04:47:02.448Z,0.60
2022-10-04T04:47:37.443Z,0.70
2022-10-04T04:48:14.825Z,0.63
2022-10-04T04:48:51.941Z,0.70
2022-10-04T04:49:24.233Z,0.90
2022-10-04T04:49:58.674Z,0.70
2022-10-04T04:50:35.590Z,0.70
2022-10-04T04:51:07.925Z,0.80
2022-10-04T04:51:41.587Z,0.90
2022-10-04T04:52:19.169Z,0.93
2022-10-04T04:52:53.812Z,1.00
2022-10-04T04:53:30.964Z,1.80
2022-10-04T04:54:05.058Z,0.80
2022-10-04T04:54:38.950Z,1.17
2022-10-04T04:55:20.424Z,1.13
2022-10-04T04:56:03.989Z,0.80
2022-10-04T04:56:39.564Z,1.00
2022-10-04T04:57:18.395Z,0.90
2022-10-04T04:57:52.032Z,0.93
2022-10-04T04:58:26.388Z,1.30
2022-10-04T04:59:02.504Z,1.20
2022-10-04T04:59:34.756Z,1.40
2022-10-04T05:00:08.923Z,1.20
2022-10-04T05:00:43.929Z,1.17
2022-10-04T05:01:22.073Z,1.10
2022-10-04T05:01:54.518Z,1.20
2022-10-04T05:02:35.232Z,1.20
2022-10-04T05:03:18.120Z,1.00
2022-10-04T05:04:03.389Z,0.90
2022-10-04T05:04:36.436Z,0.80
2022-10-04T05:05:30.509Z,1.05
2022-10-04T05:06:04.942Z,1.00
2022-10-04T05:06:38.798Z,0.87
2022-10-04T05:07:21.225Z,0.90
2022-10-04T05:08:09.072Z,0.70
2022-10-04T05:08:51.372Z,0.90
2022-10-04T05:09:24.878Z,0.85
2022-10-04T05:09:57.060Z,1.00
2022-10-04T05:10:31.558Z,0.60
2022-10-04T05:11:08.771Z,0.93
2022-10-04T05:11:43.873Z,0.90
2022-10-04T05:12:21.196Z,0.70
2022-10-04T05:12:54.051Z,0.80
2022-10-04T05:13:30.515Z,1.10
2022-10-04T05:14:08.712Z,0.73
2022-10-04T05:14:47.044Z,0.70
2022-10-04T05:15:19.636Z,0.95
2022-10-04T05:15:56.601Z,0.80
2022-10-04T05:16:32.975Z,1.00
2022-10-04T05:17:06.155Z,1.35
2022-10-04T05:17:41.341Z,1.87
2022-10-04T05:18:27.116Z,14.30
2022-10-04T05:19:05.179Z,12.60
2022-10-04T05:19:38.236Z,7.05
2022-10-04T05:20:12.257Z,9.20
2022-10-04T05:20:51.043Z,8.73
2022-10-04T05:21:25.832Z,5.60
2022-10-04T05:22:02.376Z,5.20
2022-10-04T05:22:35.354Z,1.65
2022-10-04T05:23:11.940Z,1.65
2022-10-04T05:23:47.685Z,1.02
2022-10-04T05:24:24.209Z,1.27
2022-10-04T05:25:00.161Z,1.25
2022-10-04T05:25:36.816Z,1.38
2022-10-04T05:26:11.800Z,3.13
2022-10-04T05:26:53.210Z,4.03
2022-10-04T05:27:29.560Z,4.13
2022-10-04T05:28:02.536Z,3.35
2022-10-04T05:28:37.436Z,8.00
2022-10-04T05:29:15.461Z,9.80
2022-10-04T05:29:58.084Z,9.60
2022-10-04T05:30:42.180Z,8.20
2022-10-04T05:31:29.900Z,7.75
2022-10-04T05:32:11.931Z,6.78
2022-10-04T05:32:50.420Z,4.80
2022-10-04T05:33:25.413Z,3.20
2022-10-04T05:34:01.260Z,1.40
2022-10-04T05:34:39.505Z,1.20
2022-10-04T05:35:16.924Z,0.60
2022-10-04T05:36:05.243Z,0.85
2022-10-04T05:36:55.780Z,0.90
2022-10-04T05:37:50.813Z,0.90
2022-10-04T05:38:29.227Z,0.80
2022-10-04T05:39:06.264Z,1.08
2022-10-04T05:39:46.474Z,0.85
2022-10-04T05:40:34.224Z,1.20
2022-10-04T05:41:11.761Z,0.93
2022-10-04T05:41:52.124Z,0.80
2022-10-04T05:42:28.696Z,1.10
2022-10-04T05:43:03.966Z,1.60
2022-10-04T05:43:38.077Z,1.10
2022-10-04T05:44:26.632Z,1.10
2022-10-04T05:45:01.461Z,1.70
2022-10-04T05:45:33.681Z,1.42
2022-10-04T05:46:16.131Z,1.70
2022-10-04T05:46:51.052Z,1.30
2022-10-04T05:47:26.647Z,1.60
2022-10-04T05:48:03.715Z,1.40
2022-10-04T05:48:36.482Z,1.52
2022-10-04T05:49:15.537Z,1.80
2022-10-04T05:49:57.577Z,1.50
2022-10-04T05:50:32.301Z,1.25
2022-10-04T05:51:13.450Z,1.10
2022-10-04T05:51:53.321Z,1.38
2022-10-04T05:52:28.594Z,1.40
2022-10-04T05:53:24.465Z,1.55
2022-10-04T05:53:58.698Z,1.27
2022-10-04T05:54:34.267Z,0.90
2022-10-04T05:55:26.825Z,1.13
2022-10-04T05:56:07.650Z,1.30
2022-10-04T05:56:58.437Z,1.13
2022-10-04T05:57:42.165Z,0.88
2022-10-04T05:58:40.503Z,1.25
2022-10-04T05:59:26.244Z,1.30
2022-10-04T06:00:15.201Z,1.35
2022-10-04T06:01:13.314Z,1.15
2022-10-04T06:01:49.521Z,1.05
2022-10-04T06:02:34.366Z,1.30
2022-10-04T06:03:25.141Z,1.20
2022-10-04T06:04:38.578Z,1.05
2022-10-04T06:05:15.887Z,1.25
2022-10-04T06:05:53.901Z,1.20
2022-10-04T06:06:31.375Z,0.90
2022-10-04T06:07:12.928Z,1.00
2022-10-04T06:07:51.225Z,1.00
2022-10-04T06:08:34.632Z,1.00
2022-10-04T06:09:12.220Z,0.90
2022-10-04T06:10:26.179Z,1.17
2022-10-04T06:11:19.102Z,1.20
2022-10-04T06:12:04.563Z,0.97
2022-10-04T06:12:44.663Z,1.10
2022-10-04T06:13:26.433Z,1.20
2022-10-04T06:14:33.380Z,1.10
2022-10-04T06:15:23.650Z,1.10
2022-10-04T06:16:09.091Z,1.30
2022-10-04T06:16:56.983Z,1.73
2022-10-04T06:17:52.086Z,1.77
2022-10-04T06:18:34.726Z,1.60
2022-10-04T06:19:21.567Z,1.70
2022-10-04T06:20:17.553Z,1.88
2022-10-04T06:21:08.236Z,1.85
2022-10-04T06:21:59.390Z,2.05
2022-10-04T06:22:33.246Z,2.03
2022-10-04T06:23:15.168Z,2.00
2022-10-04T06:23:53.590Z,1.90
2022-10-04T06:24:30.729Z,1.90
2022-10-04T06:25:05.842Z,1.90
2022-10-04T06:25:40.413Z,2.20
2022-10-04T06:26:17.497Z,2.30
2022-10-04T06:26:52.977Z,2.30
2022-10-04T06:27:36.098Z,2.05
2022-10-04T06:28:16.643Z,1.60
2022-10-04T06:28:51.084Z,2.00
2022-10-04T06:29:28.226Z,1.75
2022-10-04T06:30:05.344Z,1.83
2022-10-04T06:30:51.693Z,1.90
2022-10-04T06:31:40.957Z,1.25
2022-10-04T06:32:27.142Z,1.52
2022-10-04T06:33:15.087Z,1.42
2022-10-04T06:34:03.097Z,1.20
2022-10-04T06:35:10.690Z,1.20
2022-10-04T06:36:03.632Z,1.20
2022-10-04T06:36:54.851Z,1.00
2022-10-04T06:37:49.144Z,1.00
2022-10-04T06:38:54.504Z,1.05
2022-10-04T06:39:43.268Z,1.40
2022-10-04T06:40:39.905Z,1.10
2022-10-04T06:41:20.747Z,1.07
2022-10-04T06:42:17.121Z,1.35
2022-10-04T06:43:02.524Z,1.27
2022-10-04T06:43:46.340Z,1.15
2022-10-04T06:44:38.368Z,1.25
2022-10-04T06:45:26.056Z,1.52
2022-10-04T06:46:10.405Z,1.73
2022-10-04T06:46:47.009Z,1.48
2022-10-04T06:47:28.975Z,1.50
2022-10-04T06:48:25.131Z,1.38
2022-10-04T06:49:17.605Z,1.30
2022-10-04T06:49:57.392Z,1.60
2022-10-04T06:50:37.044Z,1.80
2022-10-04T06:51:14.642Z,1.40
2022-10-04T06:52:04.008Z,1.70
2022-10-04T06:52:49.192Z,1.70
2022-10-04T06:53:29.274Z,1.77
2022-10-04T06:54:06.194Z,1.40
2022-10-04T06:55:14.852Z,1.90
2022-10-04T06:56:08.549Z,1.80
2022-10-04T06:56:58.779Z,1.90
2022-10-04T06:57:50.245Z,1.85
2022-10-04T06:58:57.812Z,1.67
2022-10-04T06:59:41.575Z,1.67
2022-10-04T07:00:20.116Z,1.63
2022-10-04T07:00:55.749Z,1.30
2022-10-04T07:01:32.541Z,1.55
2022-10-04T07:02:08.315Z,1.38
2022-10-04T07:02:44.465Z,1.60
2022-10-04T07:03:23.424Z,1.60
2022-10-04T07:03:59.729Z,1.48
2022-10-04T07:05:03.206Z,1.80
2022-10-04T07:05:36.034Z,1.45
2022-10-04T07:06:11.427Z,1.95
2022-10-04T07:06:48.688Z,1.40
2022-10-04T07:07:27.335Z,1.70
2022-10-04T07:08:11.528Z,1.60
2022-10-04T07:08:48.062Z,1.70
2022-10-04T07:09:23.600Z,2.00
2022-10-04T07:10:03.164Z,1.40
2022-10-04T07:10:45.742Z,1.60
2022-10-04T07:11:21.217Z,1.50
2022-10-04T07:11:59.003Z,1.80
2022-10-04T07:12:33.207Z,1.83
2022-10-04T07:13:13.351Z,1.90
2022-10-04T07:13:56.655Z,1.60
2022-10-04T07:14:31.264Z,1.60
2022-10-04T07:15:14.155Z,2.00
2022-10-04T07:15:55.381Z,1.90
2022-10-04T07:16:37.911Z,1.70
2022-10-04T07:17:15.415Z,1.70
2022-10-04T07:17:48.999Z,1.60
2022-10-04T07:18:24.352Z,1.55
2022-10-04T07:19:13.843Z,1.50
2022-10-04T07:19:47.416Z,1.80
2022-10-04T07:20:23.268Z,1.73
2022-10-04T07:21:05.586Z,1.73
2022-10-04T07:21:46.220Z,1.70
2022-10-04T07:22:25.692Z,1.60
2022-10-04T07:23:00.119Z,1.60
2022-10-04T07:23:35.033Z,1.70
2022-10-04T07:24:12.988Z,1.90
2022-10-04T07:24:52.277Z,1.80
2022-10-04T07:25:30.689Z,2.70
2022-10-04T07:26:06.844Z,3.50
2022-10-04T07:26:45.584Z,3.03
2022-10-04T07:27:24.573Z,2.97
2022-10-04T07:28:15.092Z,2.65
2022-10-04T07:29:03.058Z,2.70
2022-10-04T07:29:41.911Z,3.00
2022-10-04T07:30:20.201Z,2.80
2022-10-04T07:30:58.657Z,3.22
2022-10-04T07:31:34.228Z,2.75
2022-10-04T07:32:14.232Z,3.30
2022-10-04T07:32:48.148Z,2.97
2022-10-04T07:33:23.521Z,2.50
2022-10-04T07:34:01.154Z,2.55
2022-10-04T07:34:36.619Z,2.53
2022-10-04T07:35:19.563Z,2.30
2022-10-04T07:35:55.060Z,2.87
2022-10-04T07:36:29.448Z,3.23
2022-10-04T07:37:10.675Z,3.47
2022-10-04T07:37:49.934Z,2.97
2022-10-04T07:38:26.868Z,3.60
2022-10-04T07:39:06.552Z,5.40
2022-10-04T07:39:44.882Z,4.30
2022-10-04T07:40:22.973Z,4.80
2022-10-04T07:41:10.065Z,4.13
2022-10-04T07:41:46.777Z,5.60
2022-10-04T07:42:31.927Z,4.82
2022-10-04T07:43:06.823Z,4.53
2022-10-04T07:43:48.144Z,4.60
2022-10-04T07:44:29.584Z,4.35
2022-10-04T07:45:12.414Z,4.37
2022-10-04T07:45:50.285Z,3.77
2022-10-04T07:46:40.534Z,3.57
2022-10-04T07:47:21.980Z,4.00
2022-10-04T07:48:03.060Z,4.18
2022-10-04T07:48:40.824Z,4.23
2022-10-04T07:49:17.190Z,3.90
2022-10-04T07:49:50.654Z,3.90
2022-10-04T07:50:27.717Z,3.60
2022-10-04T07:51:10.129Z,3.97
2022-10-04T07:51:53.367Z,3.00
2022-10-04T07:52:48.288Z,3.20
2022-10-04T07:53:24.951Z,3.00
2022-10-04T07:54:02.221Z,3.03
2022-10-04T07:54:42.110Z,2.80
2022-10-04T07:55:22.279Z,2.83
2022-10-04T07:56:00.144Z,2.87
2022-10-04T07:56:37.868Z,3.40
2022-10-04T07:57:20.087Z,3.00
2022-10-04T07:58:03.209Z,3.30
2022-10-04T07:58:46.671Z,3.07
2022-10-04T07:59:33.124Z,2.80
2022-10-04T08:00:14.224Z,2.60
2022-10-04T08:00:54.024Z,3.00
2022-10-04T08:01:33.989Z,2.90
2022-10-04T08:02:17.039Z,3.20
2022-10-04T08:03:05.894Z,3.20
2022-10-04T08:03:58.720Z,2.90
2022-10-04T08:04:42.062Z,2.80
2022-10-04T08:05:21.653Z,3.13
2022-10-04T08:06:00.610Z,3.20
2022-10-04T08:06:39.416Z,3.40
2022-10-04T08:07:17.656Z,2.83
2022-10-04T08:08:36.685Z,3.13
2022-10-04T08:09:24.080Z,3.43
2022-10-04T08:10:03.670Z,3.20
2022-10-04T08:10:40.528Z,3.13
2022-10-04T08:11:19.694Z,3.13
2022-10-04T08:12:03.663Z,3.45
2022-10-04T08:12:45.972Z,3.20
2022-10-04T08:13:26.073Z,3.03
2022-10-04T08:14:05.340Z,3.05
2022-10-04T08:14:53.233Z,2.35
2022-10-04T08:15:34.227Z,3.38
2022-10-04T08:16:20.323Z,2.67
2022-10-04T08:17:02.496Z,2.72
2022-10-04T08:17:48.081Z,2.70
2022-10-04T08:18:29.761Z,2.93
2022-10-04T08:19:21.245Z,2.80
2022-10-04T08:19:59.408Z,2.45
2022-10-04T08:20:41.805Z,2.80
2022-10-04T08:21:16.895Z,2.47
2022-10-04T08:21:56.337Z,2.40
2022-10-04T08:22:40.105Z,2.60
2022-10-04T08:23:24.607Z,2.58
2022-10-04T08:24:10.656Z,2.33
2022-10-04T08:24:53.256Z,2.70
2022-10-04T08:25:28.376Z,2.20
2022-10-04T08:26:13.655Z,2.50
2022-10-04T08:26:54.227Z,2.80
2022-10-04T08:27:38.656Z,3.13
2022-10-04T08:28:36.093Z,2.90
2022-10-04T08:29:43.044Z,2.53
2022-10-04T08:30:16.735Z,2.70
2022-10-04T08:31:11.203Z,2.70
2022-10-04T08:32:04.952Z,2.60
2022-10-04T08:32:56.746Z,3.15
2022-10-04T08:33:42.424Z,3.05
2022-10-04T08:34:29.389Z,2.73
2022-10-04T08:35:24.356Z,2.60
2022-10-04T08:36:07.737Z,5.43
2022-10-04T08:36:52.330Z,4.83
2022-10-04T08:37:33.719Z,3.80
2022-10-04T08:38:35.950Z,3.67
2022-10-04T08:39:22.729Z,4.33
2022-10-04T08:40:16.425Z,2.87
2022-10-04T08:41:25.232Z,3.07
2022-10-04T08:42:36.178Z,2.73
2022-10-04T08:43:40.772Z,2.67
2022-10-04T08:44:51.664Z,2.40
2022-10-04T08:45:52.962Z,2.50
2022-10-04T08:47:05.464Z,2.38